Date,TemperatureHighF,TemperatureAvgF,TemperatureLowF,DewpointHighF,DewpointAvgF,DewpointLowF,HumidityHigh,HumidityAvg,HumidityLow,PressureMaxIn,PressureMinIn,WindSpeedMaxMPH,WindSpeedAvgMPH,GustSpeedMaxMPH,PrecipitationSumIn
2013-2-1,25.2,17.5,11.8,21.2,10.6,5.1,90,74,64,30.40,29.83,26,6,26,0.00
2013-2-2,29.3,19.3,7.3,24.5,13.9,4.0,95,80,54,30.40,30.03,16,1,16,0.00
2013-2-3,31.0,26.1,19.8,25.3,21.9,13.5,94,84,71,30.03,29.83,33,3,33,0.00
2013-2-4,32.4,25.6,19.6,31.0,19.7,12.2,98,79,58,30.09,29.89,28,4,28,0.00
2013-2-5,38.8,34.9,31.6,35.7,32.9,30.8,98,93,80,29.94,29.84,11,2,18,0.03
2013-2-6,34.2,31.1,22.7,32.0,27.4,20.5,94,86,80,30.36,29.93,20,3,20,0.00
2013-2-7,36.7,28.8,20.6,29.1,24.7,19.1,95,85,72,30.42,30.16,11,1,11,0.02
2013-2-8,37.3,31.3,26.4,35.8,27.9,22.2,95,87,79,30.16,29.83,34,5,34,0.08
2013-2-9,33.5,27.1,21.0,22.4,20.6,16.2,89,77,58,30.43,30.06,21,7,29,0.00
2013-2-10,40.5,28.3,13.9,27.5,20.0,11.7,92,72,53,30.46,30.14,11,1,11,0.01
2013-2-11,61.3,45.1,34.7,48.7,34.5,24.4,99,72,31,30.15,29.72,38,4,38,0.06
2013-2-12,41.2,40.1,39.3,32.4,29.9,28.1,71,67,63,29.90,29.87,27,8,27,0.00
2013-2-13,34.1,33.6,33.2,33.1,32.3,30.9,97,95,89,29.83,29.71,12,1,12,0.03
2013-2-14,33.8,33.1,32.2,31.2,29.2,26.3,90,85,80,29.90,29.83,17,5,17,0.00
2013-2-15,46.9,38.4,32.9,36.6,31.6,29.0,92,77,53,30.05,29.99,14,4,14,0.00
2013-2-16,33.9,28.7,21.0,30.2,21.2,14.5,94,74,59,30.02,29.90,15,3,15,0.03
2013-2-17,23.1,20.1,17.3,17.9,13.0,7.7,87,74,60,30.29,29.92,24,6,24,0.00
2013-2-18,41.7,27.4,12.7,21.1,13.9,6.4,78,58,37,30.40,30.08,14,2,14,0.00
2013-2-19,48.1,35.7,27.4,41.0,29.0,20.8,90,77,57,30.09,29.69,28,5,28,0.04
2013-2-20,27.9,23.2,19.3,22.0,14.9,9.4,83,70,64,30.23,29.87,28,7,28,0.00
2013-2-21,29.7,23.1,19.7,19.3,15.3,11.3,81,72,62,30.38,30.18,26,5,26,0.00
2013-2-22,29.0,24.8,22.5,27.5,20.1,17.1,95,82,73,30.38,30.16,10,0,10,0.00
2013-2-23,45.7,34.0,28.0,38.9,31.3,26.4,96,90,75,30.16,29.86,10,1,10,0.04
2013-2-24,37.8,32.5,26.2,33.8,27.0,20.6,97,81,67,30.16,29.86,18,4,21,0.00
2013-2-25,42.7,32.8,23.8,27.6,23.0,20.3,89,69,46,30.25,30.15,12,1,12,0.00
2013-2-26,34.5,31.5,28.1,33.0,27.4,21.6,98,85,69,30.18,29.69,20,1,20,0.51
2013-2-27,44.4,36.0,33.0,40.4,34.2,32.6,99,93,72,29.71,29.63,23,2,24,0.37
2013-2-28,37.2,34.5,32.7,33.2,29.6,26.9,92,82,75,29.78,29.66,18,5,18,0.01